Time;durP1;ratioP1;P1;durP2;ratioP2;P2;SDS_P1;SDS_P2;PMS_P1;PMS_P2;Temp;Humidity;BMP_temperature;BMP_pressure;BME280_temperature;BME280_humidity;BME280_pressure;Samples;Min_cycle;Max_cycle;Signal;HPM_P1;HPM_P2
2022/12/25 00:01:31;;;;;;;18.63;5.00;;;;;;;9.32;100.00;97932.16;5121746;27;20024;-84
2022/12/25 00:03:57;;;;;;;22.58;6.05;;;;;;;9.23;100.00;97942.88;5121133;27;20031;-85
2022/12/25 00:06:23;;;;;;;16.90;5.47;;;;;;;9.25;100.00;97933.03;5108078;27;20480;-85
2022/12/25 00:08:48;;;;;;;12.63;4.88;;;;;;;9.26;100.00;97918.91;5108010;27;20070;-84
2022/12/25 00:11:16;;;;;;;21.48;5.57;;;;;;;9.23;100.00;97919.31;5101938;27;20059;-84
2022/12/25 00:13:43;;;;;;;11.98;4.78;;;;;;;9.17;100.00;97922.78;5104185;28;20039;-84
2022/12/25 00:16:22;;;;;;;18.65;4.57;;;;;;;9.16;100.00;97921.19;5088425;27;20494;-83
2022/12/25 00:18:48;;;;;;;13.43;4.20;;;;;;;9.29;100.00;97915.03;5116583;27;20027;-84
2022/12/25 00:21:14;;;;;;;16.48;4.70;;;;;;;9.21;100.00;97921.34;5124834;27;20467;-83
2022/12/25 00:23:40;;;;;;;14.32;4.63;;;;;;;9.29;100.00;97917.66;5108876;27;20399;-84
2022/12/25 00:26:11;;;;;;;14.20;4.55;;;;;;;9.12;100.00;97920.03;5122706;27;20031;-83
2022/12/25 00:28:38;;;;;;;19.00;4.55;;;;;;;8.88;100.00;97900.66;5108325;27;20035;-83
2022/12/25 00:31:09;;;;;;;18.92;4.45;;;;;;;9.08;100.00;97895.28;5123119;27;20505;-83
2022/12/25 00:33:36;;;;;;;13.65;4.43;;;;;;;9.09;100.00;97902.13;5137722;27;20023;-84
2022/12/25 00:36:05;;;;;;;20.17;4.60;;;;;;;9.22;100.00;97903.84;5106155;27;20430;-84
2022/12/25 00:38:32;;;;;;;12.77;4.03;;;;;;;9.12;100.00;97897.25;5104272;28;20034;-84
2022/12/25 00:40:58;;;;;;;16.60;3.92;;;;;;;8.96;100.00;97924.75;5101367;27;20081;-83
2022/12/25 00:43:23;;;;;;;22.08;5.05;;;;;;;9.05;100.00;97906.19;5086729;28;20059;-83
2022/12/25 00:45:54;;;;;;;23.77;5.07;;;;;;;9.12;100.00;97912.16;5106680;28;20047;-84
2022/12/25 00:48:20;;;;;;;18.70;4.80;;;;;;;9.08;100.00;97921.47;5121746;27;20118;-84
2022/12/25 00:50:46;;;;;;;22.55;4.97;;;;;;;8.92;100.00;97920.16;5107567;28;20108;-83
2022/12/25 00:53:12;;;;;;;19.58;5.18;;;;;;;9.11;100.00;97900.09;5118425;27;20030;-84
2022/12/25 00:55:37;;;;;;;29.58;5.97;;;;;;;8.94;100.00;97882.28;5125789;28;20035;-83
2022/12/25 00:58:03;;;;;;;20.48;4.90;;;;;;;9.02;100.00;97906.59;5106888;28;20034;-84
2022/12/25 01:00:29;;;;;;;15.52;4.75;;;;;;;9.03;100.00;97895.09;5101564;28;20024;-83
2022/12/25 01:02:55;;;;;;;17.10;4.80;;;;;;;8.93;100.00;97898.19;5103794;28;20035;-84
2022/12/25 01:05:22;;;;;;;20.40;4.20;;;;;;;8.81;100.00;97896.28;5122187;28;20035;-83
2022/12/25 01:07:48;;;;;;;21.42;4.40;;;;;;;8.94;100.00;97918.94;5119555;28;20084;-83
2022/12/25 01:10:22;;;;;;;20.63;4.53;;;;;;;8.48;100.00;97901.66;5120950;28;20433;-83
2022/12/25 01:12:50;;;;;;;18.10;3.95;;;;;;;8.77;100.00;97928.28;5117901;28;20032;-83
2022/12/25 01:15:16;;;;;;;19.75;3.88;;;;;;;8.65;100.00;97913.28;5106173;28;20034;-83
2022/12/25 01:17:43;;;;;;;19.67;4.47;;;;;;;8.65;100.00;97902.81;5126181;27;20087;-83
2022/12/25 01:20:11;;;;;;;25.75;4.70;;;;;;;8.75;100.00;97922.47;5130568;27;20030;-84
2022/12/25 01:22:37;;;;;;;16.50;3.95;;;;;;;8.81;100.00;97926.84;5130062;27;20027;-84
2022/12/25 01:25:04;;;;;;;12.30;4.28;;;;;;;8.85;100.00;97936.69;5126554;27;20027;-84
2022/12/25 01:27:31;;;;;;;14.27;3.75;;;;;;;8.53;100.00;97913.09;5124193;27;20415;-83
2022/12/25 01:29:57;;;;;;;10.55;3.00;;;;;;;8.90;100.00;97933.47;5125628;27;20031;-83
2022/12/25 01:32:23;;;;;;;16.83;3.83;;;;;;;8.68;100.00;97933.78;5105724;27;20465;-84
2022/12/25 01:34:49;;;;;;;15.80;3.85;;;;;;;8.85;100.00;97930.69;5124010;27;20028;-83
2022/12/25 01:37:14;;;;;;;17.35;2.67;;;;;;;8.80;100.00;97923.44;5126971;27;20038;-84
2022/12/25 01:39:40;;;;;;;21.15;3.47;;;;;;;9.10;100.00;97935.94;5107977;28;20023;-85
2022/12/25 01:42:14;;;;;;;13.93;2.67;;;;;;;9.12;100.00;97961.91;5112571;27;20027;-84
2022/12/25 01:44:45;;;;;;;19.92;3.42;;;;;;;9.43;100.00;97974.16;5140089;27;20027;-85
2022/12/25 01:47:12;;;;;;;13.73;2.67;;;;;;;9.41;100.00;97972.78;5128432;27;20039;-84
2022/12/25 01:49:41;;;;;;;14.95;2.67;;;;;;;9.45;100.00;97979.22;5127281;27;20031;-84
2022/12/25 01:52:09;;;;;;;15.82;2.88;;;;;;;9.47;100.00;97960.66;5121133;27;20027;-84
2022/12/25 01:54:40;;;;;;;13.77;2.95;;;;;;;9.36;100.00;97972.63;5118170;27;20027;-84
2022/12/25 01:57:10;;;;;;;13.60;2.83;;;;;;;9.19;100.00;97960.03;5123774;27;20032;-86
2022/12/25 01:59:38;;;;;;;12.65;2.63;;;;;;;9.35;100.00;97955.31;5125832;27;20034;-84
2022/12/25 02:02:03;;;;;;;8.90;3.03;;;;;;;9.15;100.00;97964.09;5118199;27;20020;-84
2022/12/25 02:04:38;;;;;;;9.65;3.55;;;;;;;9.21;100.00;97963.25;5127576;27;20072;-84
2022/12/25 02:07:11;;;;;;;13.68;2.75;;;;;;;9.38;100.00;97958.31;5125165;27;20161;-83
2022/12/25 02:09:37;;;;;;;10.50;2.47;;;;;;;9.10;100.00;97966.56;5126225;27;20110;-85
2022/12/25 02:12:04;;;;;;;12.27;2.00;;;;;;;9.21;100.00;97963.25;5123411;27;20107;-84
2022/12/25 02:14:33;;;;;;;7.72;2.17;;;;;;;9.31;100.00;97951.50;5126464;27;20028;-86
2022/12/25 02:17:17;;;;;;;7.82;1.95;;;;;;;9.46;100.00;97954.63;5112552;27;20034;-84
2022/12/25 02:20:01;;;;;;;;;;;;;;;9.23;100.00;97955.97;5108459;27;20123;-83
2022/12/25 02:22:35;;;;;;;10.38;2.58;;;;;;;9.37;100.00;97954.09;5124477;27;20313;-83
2022/12/25 02:25:27;;;;;;;7.50;2.03;;;;;;;9.42;100.00;97949.00;5127367;27;20090;-85
2022/12/25 02:28:04;;;;;;;12.10;1.92;;;;;;;9.47;100.00;97953.59;5070736;27;20127;-85
2022/12/25 02:30:37;;;;;;;5.18;1.98;;;;;;;9.41;100.00;97944.78;5122393;27;20051;-84
2022/12/25 02:36:02;;;;;;;11.43;2.22;;;;;;;9.23;100.00;97945.50;5121030;27;20039;-84
2022/12/25 02:38:37;;;;;;;8.75;2.75;;;;;;;9.10;100.00;97914.19;5129774;27;20050;-84
2022/12/25 02:41:14;;;;;;;5.88;1.85;;;;;;;9.18;100.00;97940.09;5120662;27;20476;-84
2022/12/25 03:06:45;;;;;;;8.98;3.13;;;;;;;8.75;100.00;97912.00;5106326;27;20031;-85
2022/12/25 03:12:15;;;;;;;14.60;3.88;;;;;;;8.92;100.00;97913.09;5127590;27;20037;-84
2022/12/25 03:17:24;;;;;;;14.93;4.93;;;;;;;8.94;100.00;97908.47;5106951;27;20027;-84
2022/12/25 03:28:05;;;;;;;20.33;6.53;;;;;;;8.86;100.00;97896.44;5124725;27;20036;-86
2022/12/25 03:31:12;;;;;;;18.00;6.50;;;;;;;8.84;100.00;97895.03;5123414;27;20409;-85
2022/12/25 04:37:49;;;;;;;29.80;9.05;;;;;;;8.71;100.00;97851.44;5121767;27;20786;-83
2022/12/25 04:40:15;;;;;;;25.92;8.38;;;;;;;9.10;100.00;97851.38;5118847;27;20023;-84
2022/12/25 04:42:41;;;;;;;30.33;9.38;;;;;;;8.89;100.00;97861.19;5121070;27;20031;-84
2022/12/25 04:45:08;;;;;;;38.17;8.55;;;;;;;9.08;100.00;97848.97;5100543;28;20379;-87
2022/12/25 04:47:34;;;;;;;29.15;8.52;;;;;;;8.90;100.00;97841.03;5101038;28;20075;-86
2022/12/25 04:50:00;;;;;;;32.60;9.60;;;;;;;8.89;100.00;97858.56;5099455;28;20615;-85
2022/12/25 04:52:25;;;;;;;26.83;8.07;;;;;;;8.80;100.00;97857.22;5099938;27;20076;-84
2022/12/25 04:54:51;;;;;;;28.65;9.10;;;;;;;8.93;100.00;97869.41;5126348;27;20027;-84
2022/12/25 04:57:17;;;;;;;29.48;9.75;;;;;;;8.78;100.00;97846.16;5085329;28;20031;-84
2022/12/25 04:59:44;;;;;;;29.92;8.38;;;;;;;8.59;100.00;97830.38;5102062;28;20407;-82
2022/12/25 05:02:11;;;;;;;20.55;8.15;;;;;;;8.84;100.00;97834.84;5105592;28;20035;-82
2022/12/25 05:04:38;;;;;;;27.52;8.73;;;;;;;8.71;100.00;97823.47;5090716;28;20357;-83
2022/12/25 05:07:04;;;;;;;19.85;7.22;;;;;;;8.70;100.00;97814.03;5106951;28;20106;-86
2022/12/25 05:09:29;;;;;;;27.30;7.80;;;;;;;8.78;100.00;97804.31;5125165;28;20035;-84
2022/12/25 05:11:55;;;;;;;32.63;7.00;;;;;;;8.83;100.00;97809.69;5121294;28;20031;-85
2022/12/25 05:14:20;;;;;;;22.80;7.18;;;;;;;8.74;100.00;97806.53;5122436;28;20035;-84
2022/12/25 05:16:46;;;;;;;19.83;6.15;;;;;;;8.81;100.00;97796.84;5126326;28;20055;-86
2022/12/25 05:19:11;;;;;;;30.08;7.68;;;;;;;9.04;100.00;97812.94;5123771;28;20027;-84
2022/12/25 05:21:37;;;;;;;28.83;7.22;;;;;;;8.95;100.00;97818.47;5100825;28;20100;-85
2022/12/25 05:24:03;;;;;;;23.60;6.68;;;;;;;8.90;100.00;97810.47;5106920;28;20047;-85
2022/12/25 05:26:30;;;;;;;29.45;7.40;;;;;;;9.13;100.00;97824.75;5122706;28;20491;-84
2022/12/25 05:28:58;;;;;;;26.20;6.90;;;;;;;9.05;100.00;97815.38;5119264;28;20031;-84
2022/12/25 05:31:23;;;;;;;18.40;6.40;;;;;;;9.04;100.00;97820.78;5122910;28;20130;-84
2022/12/25 05:33:50;;;;;;;40.05;8.25;;;;;;;9.06;100.00;97798.63;5127375;28;20049;-84
2022/12/25 05:36:16;;;;;;;25.15;6.85;;;;;;;9.06;100.00;97813.56;5107357;28;20028;-84
2022/12/25 05:38:41;;;;;;;25.38;7.15;;;;;;;8.98;100.00;97807.56;5119225;28;20058;-84
2022/12/25 05:41:07;;;;;;;23.33;6.60;;;;;;;9.08;100.00;97814.13;5126682;28;20072;-83
2022/12/25 05:43:32;;;;;;;27.85;6.75;;;;;;;9.12;100.00;97787.28;5119474;28;20473;-83
2022/12/25 05:46:04;;;;;;;22.48;7.25;;;;;;;9.28;100.00;97806.91;5106588;28;20088;-82
2022/12/25 05:48:30;;;;;;;33.45;7.00;;;;;;;8.88;100.00;97811.69;5126882;28;20023;-84
2022/12/25 05:50:56;;;;;;;20.73;6.50;;;;;;;9.05;100.00;97796.25;5124924;28;20027;-83
2022/12/25 05:53:21;;;;;;;22.02;6.20;;;;;;;9.17;100.00;97815.47;5124183;28;20116;-83
2022/12/25 05:55:47;;;;;;;28.90;7.90;;;;;;;9.05;100.00;97801.50;5120633;28;20027;-86
2022/12/25 05:58:12;;;;;;;25.83;6.88;;;;;;;9.09;100.00;97794.81;5102379;28;20500;-85
2022/12/25 06:00:39;;;;;;;31.55;7.40;;;;;;;9.10;100.00;97806.88;5125572;28;20023;-85
2022/12/25 06:03:05;;;;;;;30.60;7.50;;;;;;;8.75;100.00;97786.41;5122929;27;20042;-85
2022/12/25 06:05:31;;;;;;;34.92;7.10;;;;;;;8.96;100.00;97803.56;5092422;27;20039;-84
2022/12/25 06:07:56;;;;;;;27.27;9.00;;;;;;;9.04;100.00;97799.84;5104457;27;20067;-83
2022/12/25 06:10:22;;;;;;;32.40;6.82;;;;;;;8.76;100.00;97806.34;5129671;27;20125;-85
2022/12/25 06:12:48;;;;;;;30.33;6.78;;;;;;;8.79;100.00;97790.22;5122383;27;20027;-82
2022/12/25 06:15:14;;;;;;;28.73;6.97;;;;;;;8.84;100.00;97790.34;5106767;27;20034;-83
2022/12/25 06:17:39;;;;;;;35.40;7.20;;;;;;;8.76;100.00;97799.31;5123038;27;20078;-84
2022/12/25 06:20:06;;;;;;;31.77;7.18;;;;;;;8.79;100.00;97796.25;5105431;27;20025;-83
2022/12/25 06:22:33;;;;;;;28.60;7.75;;;;;;;8.61;100.00;97794.34;5120409;27;20499;-84
2022/12/25 06:24:59;;;;;;;28.70;7.07;;;;;;;8.75;100.00;97791.66;5085749;28;20026;-83
2022/12/25 06:27:25;;;;;;;32.97;7.22;;;;;;;8.66;100.00;97788.50;5106538;28;20377;-84
2022/12/25 06:29:52;;;;;;;18.58;7.25;;;;;;;8.52;100.00;97767.66;5128846;27;20038;-85
2022/12/25 06:32:18;;;;;;;21.20;7.28;;;;;;;8.66;100.00;97794.53;5108038;27;20065;-85
2022/12/25 06:34:44;;;;;;;23.88;6.03;;;;;;;8.69;100.00;97775.00;5125111;27;20110;-86
2022/12/25 06:37:09;;;;;;;23.73;6.95;;;;;;;8.80;100.00;97783.97;5109178;27;20038;-84
2022/12/25 06:39:35;;;;;;;31.20;7.90;;;;;;;8.67;100.00;97777.03;5118415;27;20046;-84
2022/12/25 06:42:02;;;;;;;26.08;6.65;;;;;;;8.91;100.00;97780.66;5126438;27;20027;-84
2022/12/25 06:44:27;;;;;;;31.02;6.47;;;;;;;8.47;100.00;97748.38;5102067;27;20069;-85
2022/12/25 06:46:53;;;;;;;38.95;8.20;;;;;;;8.69;100.00;97757.50;5122501;27;20019;-85
2022/12/25 06:49:20;;;;;;;25.52;7.45;;;;;;;8.71;100.00;97737.16;5123200;27;20118;-84
2022/12/25 06:51:45;;;;;;;34.85;8.43;;;;;;;8.65;100.00;97772.03;5105865;27;20094;-85
2022/12/25 06:54:11;;;;;;;22.55;6.90;;;;;;;8.67;100.00;97750.84;5102918;27;20028;-85
2022/12/25 06:56:37;;;;;;;27.73;6.80;;;;;;;8.70;100.00;97790.47;5126253;27;20426;-85
2022/12/25 06:59:07;;;;;;;23.60;7.78;;;;;;;8.91;100.00;97772.81;5101106;28;20020;-84
2022/12/25 07:01:41;;;;;;;22.15;7.07;;;;;;;8.84;100.00;97792.97;5128154;27;20023;-83
2022/12/25 07:04:13;;;;;;;29.45;7.93;;;;;;;8.60;100.00;97784.13;5105264;27;20529;-83
2022/12/25 07:06:38;;;;;;;22.17;7.15;;;;;;;8.61;100.00;97783.91;5124176;27;20088;-84
2022/12/25 07:09:04;;;;;;;28.13;8.15;;;;;;;8.78;100.00;97792.03;5125027;27;20039;-83
2022/12/25 07:11:29;;;;;;;25.40;7.28;;;;;;;8.32;100.00;97746.88;5122842;27;20469;-84
2022/12/25 07:13:56;;;;;;;32.03;7.47;;;;;;;8.39;100.00;97741.59;5123746;27;20038;-84
2022/12/25 07:16:21;;;;;;;25.98;7.28;;;;;;;8.63;100.00;97762.78;5121765;27;20028;-84
2022/12/25 07:18:47;;;;;;;25.15;7.15;;;;;;;8.65;100.00;97768.59;5124145;27;20389;-84
2022/12/25 07:21:18;;;;;;;24.50;7.85;;;;;;;8.76;100.00;97767.91;5127506;27;20512;-84
2022/12/25 07:23:46;;;;;;;20.83;6.38;;;;;;;8.77;100.00;97784.38;5126001;27;20490;-85
2022/12/25 07:26:13;;;;;;;22.63;6.65;;;;;;;8.55;100.00;97779.53;5100688;27;20047;-84
2022/12/25 07:28:38;;;;;;;20.27;6.07;;;;;;;8.57;100.00;97791.38;5106838;27;20059;-83
2022/12/25 07:31:07;;;;;;;29.25;7.40;;;;;;;8.89;100.00;97777.47;5125258;27;20064;-83
2022/12/25 07:33:33;;;;;;;36.38;8.73;;;;;;;8.56;100.00;97788.97;5105126;27;20027;-84
2022/12/25 07:35:59;;;;;;;30.23;7.78;;;;;;;8.63;100.00;97774.03;5127295;27;20392;-86
2022/12/25 07:38:25;;;;;;;25.17;6.85;;;;;;;8.84;100.00;97795.59;5124051;27;20033;-85
2022/12/25 07:40:51;;;;;;;26.58;6.90;;;;;;;8.68;100.00;97779.44;5126057;27;20031;-85
2022/12/25 07:43:16;;;;;;;28.13;7.43;;;;;;;8.75;100.00;97794.28;5106140;27;20031;-83
2022/12/25 07:45:42;;;;;;;28.92;8.02;;;;;;;8.62;100.00;97803.81;5103196;27;20080;-86
2022/12/25 07:48:08;;;;;;;28.50;7.68;;;;;;;8.79;100.00;97813.75;5121088;27;20031;-85
2022/12/25 07:50:33;;;;;;;25.75;7.82;;;;;;;8.36;100.00;97779.41;5107124;27;20063;-85
2022/12/25 07:52:59;;;;;;;30.67;7.10;;;;;;;8.74;100.00;97813.59;5125671;27;20487;-87
2022/12/25 07:55:24;;;;;;;25.85;6.85;;;;;;;8.48;100.00;97799.66;5112727;27;20811;-88
2022/12/25 07:57:51;;;;;;;31.13;7.00;;;;;;;8.79;100.00;97819.81;5108044;27;20065;-88
2022/12/25 08:00:17;;;;;;;26.52;6.72;;;;;;;8.67;100.00;97780.44;5122888;27;20028;-86
2022/12/25 08:02:43;;;;;;;33.15;6.90;;;;;;;8.75;100.00;97807.34;5131771;27;20039;-87
2022/12/25 08:05:08;;;;;;;27.95;6.95;;;;;;;8.63;100.00;97810.63;5128227;27;20098;-87
2022/12/25 08:07:37;;;;;;;38.05;6.93;;;;;;;8.65;100.00;97803.41;5101588;27;20050;-81
2022/12/25 08:10:03;;;;;;;33.70;6.95;;;;;;;8.65;100.00;97798.19;5130099;27;20030;-89
2022/12/25 08:12:29;;;;;;;23.77;8.27;;;;;;;8.82;100.00;97808.09;5137816;27;20111;-86
2022/12/25 08:14:54;;;;;;;33.95;9.32;;;;;;;8.63;100.00;97788.94;5111048;27;20062;-90
2022/12/25 08:17:20;;;;;;;26.00;8.00;;;;;;;8.73;100.00;97788.44;5100191;27;20114;-89
2022/12/25 08:19:46;;;;;;;29.98;8.07;;;;;;;8.80;100.00;97812.75;5126172;27;20031;-88
2022/12/25 08:22:11;;;;;;;33.33;8.07;;;;;;;8.63;100.00;97794.94;5142980;27;20027;-87
2022/12/25 08:24:37;;;;;;;29.75;8.45;;;;;;;8.90;100.00;97833.19;5110910;27;20048;-85
2022/12/25 08:27:03;;;;;;;31.63;8.80;;;;;;;8.70;100.00;97806.19;5110057;27;20028;-86
2022/12/25 08:29:28;;;;;;;32.05;8.38;;;;;;;9.07;100.00;97857.03;5110658;27;20035;-87
2022/12/25 08:31:54;;;;;;;44.90;8.82;;;;;;;8.71;100.00;97838.34;5125622;27;20073;-89
2022/12/25 08:34:20;;;;;;;30.85;8.13;;;;;;;8.98;100.00;97862.53;5127890;27;20047;-88
2022/12/25 08:36:47;;;;;;;31.45;7.32;;;;;;;9.07;100.00;97843.94;5090722;28;20051;-87
2022/12/25 08:39:13;;;;;;;28.20;6.78;;;;;;;8.84;100.00;97846.13;5127011;27;20086;-89
2022/12/25 08:41:39;;;;;;;28.92;7.80;;;;;;;8.92;100.00;97842.44;5103419;27;20506;-88
2022/12/25 08:44:05;;;;;;;21.67;6.85;;;;;;;9.20;100.00;97872.63;5094014;27;20020;-86
2022/12/25 08:46:31;;;;;;;33.38;7.13;;;;;;;9.16;100.00;97871.44;5107813;28;20388;-85
2022/12/25 08:48:57;;;;;;;32.45;8.32;;;;;;;9.10;100.00;97874.94;5106287;28;20028;-87
2022/12/25 08:51:24;;;;;;;22.75;7.13;;;;;;;8.94;100.00;97877.06;5120495;27;20031;-83
2022/12/25 08:53:52;;;;;;;23.85;8.15;;;;;;;9.18;100.00;97874.66;5120462;27;20032;-88
2022/12/25 08:56:19;;;;;;;30.95;7.63;;;;;;;8.88;100.00;97837.84;5120935;27;20374;-83
2022/12/25 08:58:45;;;;;;;36.95;8.27;;;;;;;9.04;100.00;97849.59;5120393;27;20075;-81
2022/12/25 09:01:12;;;;;;;22.42;6.85;;;;;;;9.36;100.00;97896.66;5123715;27;20160;-81
2022/12/25 09:03:38;;;;;;;29.10;6.28;;;;;;;9.34;100.00;97885.59;5118614;27;20015;-82
2022/12/25 09:06:07;;;;;;;28.13;6.80;;;;;;;9.18;100.00;97885.13;5104395;28;20485;-82
2022/12/25 09:08:34;;;;;;;33.83;8.35;;;;;;;9.17;100.00;97878.28;5100267;28;20081;-81
2022/12/25 09:11:01;;;;;;;26.83;5.97;;;;;;;9.23;100.00;97835.53;5105346;28;20027;-83
2022/12/25 09:13:27;;;;;;;26.58;6.40;;;;;;;9.22;100.00;97843.63;5121102;28;20027;-83
2022/12/25 09:15:53;;;;;;;29.25;6.43;;;;;;;9.50;100.00;97844.97;5107133;28;20031;-84
2022/12/25 09:18:18;;;;;;;25.33;5.93;;;;;;;9.32;100.00;97848.38;5087139;28;20039;-85
2022/12/25 09:20:44;;;;;;;41.65;6.85;;;;;;;9.24;100.00;97850.25;5126542;28;20503;-84
2022/12/25 09:23:10;;;;;;;26.52;5.10;;;;;;;9.50;100.00;97856.25;5104288;28;20043;-82
2022/12/25 09:25:35;;;;;;;21.60;5.75;;;;;;;9.67;100.00;97829.47;5117042;28;20023;-82
2022/12/25 09:28:01;;;;;;;31.65;6.63;;;;;;;9.68;100.00;97886.91;5105185;28;20473;-84
2022/12/25 09:30:27;;;;;;;19.92;5.22;;;;;;;9.74;100.00;97855.63;5099009;28;20485;-81
2022/12/25 09:32:52;;;;;;;25.73;5.22;;;;;;;9.74;100.00;97840.69;5138017;27;20042;-83
2022/12/25 09:35:18;;;;;;;26.88;5.40;;;;;;;9.90;100.00;97856.84;5121743;28;20238;-81
2022/12/25 09:37:44;;;;;;;24.70;5.15;;;;;;;10.06;100.00;97882.47;5122327;27;20079;-80
2022/12/25 09:40:16;;;;;;;22.88;6.00;;;;;;;10.00;100.00;97867.59;5127047;27;20030;-80
2022/12/25 09:42:43;;;;;;;22.45;5.25;;;;;;;9.80;100.00;97860.75;5122870;27;20030;-84
2022/12/25 09:45:18;;;;;;;25.70;5.45;;;;;;;10.03;100.00;97843.59;5123216;27;20031;-84
2022/12/25 09:47:48;;;;;;;28.50;5.35;;;;;;;9.98;100.00;97851.28;5088565;27;20818;-82
2022/12/25 09:50:19;;;;;;;19.65;5.72;;;;;;;9.96;100.00;97869.88;5127980;27;20495;-83
2022/12/25 09:52:54;;;;;;;18.98;4.97;;;;;;;10.02;100.00;97846.44;5105788;27;20140;-83
2022/12/25 09:55:25;;;;;;;28.73;6.05;;;;;;;10.15;100.00;97883.75;5109600;27;20118;-83
2022/12/25 09:57:57;;;;;;;23.83;6.10;;;;;;;10.25;100.00;97853.63;5128028;27;20038;-85
2022/12/25 10:00:33;;;;;;;31.67;6.35;;;;;;;10.23;100.00;97880.03;5109489;27;20039;-83
2022/12/25 10:03:17;;;;;;;21.92;5.13;;;;;;;10.57;100.00;97892.75;5094144;27;20157;-85
2022/12/25 10:05:45;;;;;;;;;;;;;;;10.60;100.00;97889.69;5126464;27;20091;-83
2022/12/25 10:08:42;;;;;;;27.80;8.20;;;;;;;10.61;100.00;97891.31;5123799;27;19911;-84
2022/12/25 10:11:40;;;;;;;21.35;7.43;;;;;;;10.63;100.00;97894.50;5106821;28;20028;-86
2022/12/25 10:14:32;;;;;;;31.20;6.38;;;;;;;10.67;100.00;97895.66;5098472;27;20039;-82
2022/12/25 10:17:07;;;;;;;26.73;5.65;;;;;;;10.86;100.00;97887.72;5126433;27;20023;-80
2022/12/25 10:19:58;;;;;;;30.38;6.53;;;;;;;10.92;100.00;97863.19;5108196;27;20027;-79
2022/12/25 10:22:44;;;;;;;31.27;7.22;;;;;;;11.00;100.00;97883.88;5127632;27;20464;-77
2022/12/25 10:25:19;;;;;;;17.85;5.97;;;;;;;10.92;100.00;97897.31;5122697;27;20027;-78
2022/12/25 10:27:51;;;;;;;27.85;5.72;;;;;;;11.03;100.00;97882.63;5120627;27;20435;-81
2022/12/25 10:30:21;;;;;;;25.77;5.43;;;;;;;11.02;100.00;97874.97;5116417;28;20044;-83
2022/12/25 10:32:48;;;;;;;34.35;7.38;;;;;;;11.08;100.00;97900.31;5101649;28;20040;-83
2022/12/25 10:35:17;;;;;;;15.48;5.28;;;;;;;10.89;100.00;97882.03;5118979;28;20084;-82
2022/12/25 10:37:47;;;;;;;23.15;6.88;;;;;;;11.14;100.00;97894.16;5082019;28;20419;-84
2022/12/25 10:40:50;;;;;;;22.75;6.03;;;;;;;11.38;100.00;97902.06;5126984;27;20035;-82
2022/12/25 10:43:23;;;;;;;20.85;6.25;;;;;;;11.49;100.00;97911.78;5114013;27;20041;-83
2022/12/25 10:45:49;;;;;;;28.20;5.38;;;;;;;11.12;100.00;97880.47;5136683;27;20062;-82
2022/12/25 10:48:31;;;;;;;20.08;5.20;;;;;;;11.25;100.00;97903.09;5131181;27;20073;-82
2022/12/25 10:50:57;;;;;;;20.67;5.25;;;;;;;10.93;100.00;97903.38;5115117;28;20031;-83
2022/12/25 10:53:27;;;;;;;22.65;6.57;;;;;;;11.38;100.00;97900.25;5116050;28;20080;-83
2022/12/25 10:56:02;;;;;;;29.55;6.22;;;;;;;11.16;100.00;97901.81;5098262;28;20050;-82
2022/12/25 10:58:29;;;;;;;20.50;5.40;;;;;;;11.16;100.00;97876.34;5115791;28;20035;-83
2022/12/25 11:01:01;;;;;;;22.63;5.57;;;;;;;11.32;100.00;97916.13;5115904;28;20043;-84
2022/12/25 11:03:31;;;;;;;29.05;5.15;;;;;;;11.39;100.00;97875.56;5115799;28;20027;-81
2022/12/25 11:05:57;;;;;;;29.67;5.95;;;;;;;11.37;100.00;97898.66;5115783;28;20115;-81
2022/12/25 11:08:26;;;;;;;25.10;5.15;;;;;;;11.61;100.00;97911.00;5115355;28;20036;-80
2022/12/25 11:11:05;;;;;;;32.90;6.07;;;;;;;11.29;100.00;97870.88;5106367;27;20141;-81
2022/12/25 11:13:35;;;;;;;27.17;5.30;;;;;;;11.24;100.00;97897.03;5125940;27;20032;-80
2022/12/25 11:16:01;;;;;;;33.88;6.90;;;;;;;11.27;100.00;97904.47;5097690;28;20088;-82
2022/12/25 11:18:33;;;;;;;24.67;7.10;;;;;;;11.21;100.00;97879.13;5115647;28;20035;-81
2022/12/25 11:21:02;;;;;;;20.95;6.32;;;;;;;11.34;100.00;97851.00;5115697;28;20477;-80
2022/12/25 11:23:30;;;;;;;34.45;5.63;;;;;;;11.38;100.00;97892.38;5135699;27;20023;-80
2022/12/25 11:25:57;;;;;;;27.08;5.68;;;;;;;11.46;100.00;97882.53;5112028;27;20023;-81
2022/12/25 11:28:24;;;;;;;30.13;7.07;;;;;;;11.10;100.00;97869.38;5100487;27;20035;-81
2022/12/25 11:30:56;;;;;;;19.92;5.47;;;;;;;11.34;100.00;97851.00;5105525;28;20052;-80
2022/12/25 11:33:41;;;;;;;27.02;6.32;;;;;;;11.09;100.00;97839.69;5118252;27;20034;-81
2022/12/25 11:36:24;;;;;;;28.40;5.88;;;;;;;11.16;100.00;97881.59;5109662;27;20381;-83
2022/12/25 11:38:50;;;;;;;25.52;6.53;;;;;;;11.27;100.00;97845.88;5125401;27;20027;-82
2022/12/25 11:41:19;;;;;;;14.63;5.25;;;;;;;11.30;100.00;97840.19;5102429;28;20027;-85
2022/12/25 11:43:55;;;;;;;25.73;5.88;;;;;;;11.37;100.00;97846.09;5079906;28;20031;-80
2022/12/25 11:46:30;;;;;;;31.75;7.88;;;;;;;11.33;100.00;97849.41;5115306;28;20038;-81
2022/12/25 11:49:01;;;;;;;23.08;6.88;;;;;;;11.75;100.00;97857.13;5134065;27;20373;-80
2022/12/25 11:51:32;;;;;;;32.80;7.28;;;;;;;11.55;100.00;97842.53;5135213;27;20705;-81
2022/12/25 11:54:05;;;;;;;28.05;6.63;;;;;;;11.48;100.00;97836.63;5116860;27;20035;-80
2022/12/25 11:56:31;;;;;;;18.08;5.78;;;;;;;11.87;100.00;97875.53;5115234;27;20184;-80
2022/12/25 11:59:14;;;;;;;28.23;6.65;;;;;;;11.71;100.00;97848.13;5117878;27;20035;-83
2022/12/25 12:01:50;;;;;;;26.33;5.78;;;;;;;11.93;100.00;97847.50;5098817;27;20039;-84
2022/12/25 12:04:30;;;;;;;23.92;6.35;;;;;;;11.41;100.00;97838.56;5106220;27;20028;-81
2022/12/25 12:07:20;;;;;;;22.33;7.35;;;;;;;11.66;100.00;97853.28;5099609;28;20128;-83
2022/12/25 12:10:13;;;;;;;30.27;7.72;;;;;;;11.90;100.00;97877.72;5089081;27;20173;-81
2022/12/25 12:12:51;;;;;;;25.45;7.13;;;;;;;12.02;100.00;97864.56;5093442;27;20080;-82
2022/12/25 12:15:28;;;;;;;31.85;7.80;;;;;;;11.53;100.00;97870.09;5124452;27;20051;-81
2022/12/25 12:18:31;;;;;;;28.48;7.10;;;;;;;11.78;100.00;97866.41;5098765;27;20028;-81
2022/12/25 12:21:19;;;;;;;19.98;6.00;;;;;;;11.45;100.00;97862.53;5054400;27;20035;-82
2022/12/25 12:23:54;;;;;;;38.47;8.30;;;;;;;11.67;100.00;97858.28;5105352;27;20023;-82
2022/12/25 12:26:25;;;;;;;30.17;7.20;;;;;;;11.39;100.00;97843.22;5087084;28;20042;-83
2022/12/25 12:28:54;;;;;;;22.77;5.80;;;;;;;11.72;100.00;97847.09;5084155;27;20523;-82
2022/12/25 12:31:21;;;;;;;33.63;7.80;;;;;;;11.38;100.00;97836.38;5106609;27;20492;-84
2022/12/25 12:33:54;;;;;;;22.83;6.28;;;;;;;11.78;100.00;97846.16;5105321;27;20043;-84
2022/12/25 12:36:25;;;;;;;34.15;6.80;;;;;;;11.54;100.00;97840.16;5107010;27;20053;-82
2022/12/25 12:38:54;;;;;;;31.20;7.38;;;;;;;11.45;100.00;97837.09;5109074;28;20123;-83
2022/12/25 12:41:46;;;;;;;26.17;6.05;;;;;;;11.47;100.00;97829.75;5101601;28;20043;-84
2022/12/25 12:44:16;;;;;;;26.77;7.10;;;;;;;11.28;100.00;97764.22;5085755;28;20024;-83
2022/12/25 12:46:56;;;;;;;25.65;6.15;;;;;;;11.74;100.00;97818.75;5095408;27;20037;-84
2022/12/25 12:49:31;;;;;;;19.20;6.68;;;;;;;11.64;100.00;97806.19;5092101;28;20061;-85
2022/12/25 12:52:23;;;;;;;27.05;7.00;;;;;;;11.82;100.00;97831.53;5083580;28;20044;-84
2022/12/25 12:54:58;;;;;;;22.63;5.90;;;;;;;11.49;100.00;97790.91;5088186;28;20035;-83
2022/12/25 12:57:31;;;;;;;17.58;6.30;;;;;;;11.45;100.00;97763.50;5110482;27;20028;-85
2022/12/25 12:59:58;;;;;;;19.92;6.13;;;;;;;11.98;100.00;97829.19;5107467;27;20080;-84
2022/12/25 13:02:42;;;;;;;32.25;8.18;;;;;;;12.25;100.00;97820.78;5090944;28;20023;-86
2022/12/25 13:05:53;;;;;;;22.25;7.22;;;;;;;12.09;100.00;97820.50;5113294;27;20072;-84
2022/12/25 13:08:41;;;;;;;23.70;6.55;;;;;;;12.11;100.00;97818.44;5070484;28;20043;-84
2022/12/25 13:11:21;;;;;;;21.98;6.03;;;;;;;12.31;100.00;97811.94;5093267;28;20065;-82
2022/12/25 13:13:52;;;;;;;16.70;5.65;;;;;;;12.23;100.00;97807.88;5102086;28;20419;-83
2022/12/25 13:16:40;;;;;;;28.10;6.88;;;;;;;12.26;100.00;97807.38;5102900;27;20089;-82
2022/12/25 13:19:21;;;;;;;24.05;7.20;;;;;;;12.20;100.00;97815.44;5106711;27;20035;-84
2022/12/25 13:21:59;;;;;;;24.27;6.95;;;;;;;12.44;100.00;97805.59;5134648;27;20127;-83